sensor_id;sensor_type;location;lat;lon;timestamp;temperature;humidity
75217;HTU21D;63800;51.972;5.682;2023-03-01T00:01:50;-0.29;69.49
75217;HTU21D;63800;51.972;5.682;2023-03-01T00:04:15;-0.38;71.13
75217;HTU21D;63800;51.972;5.682;2023-03-01T00:06:44;-0.15;69.63
75217;HTU21D;63800;51.972;5.682;2023-03-01T00:09:14;-0.17;70.27
75217;HTU21D;63800;51.972;5.682;2023-03-01T00:11:40;-0.22;71.11
75217;HTU21D;63800;51.972;5.682;2023-03-01T00:14:05;-0.20;71.23
75217;HTU21D;63800;51.972;5.682;2023-03-01T00:16:37;-0.19;71.00
75217;HTU21D;63800;51.972;5.682;2023-03-01T00:19:05;-0.19;71.00
75217;HTU21D;63800;51.972;5.682;2023-03-01T00:21:33;-0.31;70.99
75217;HTU21D;63800;51.972;5.682;2023-03-01T00:24:00;-0.29;70.92
75217;HTU21D;63800;51.972;5.682;2023-03-01T00:26:26;-0.17;70.75
75217;HTU21D;63800;51.972;5.682;2023-03-01T00:28:52;-0.30;71.58
75217;HTU21D;63800;51.972;5.682;2023-03-01T00:31:20;-0.24;71.20
75217;HTU21D;63800;51.972;5.682;2023-03-01T00:33:46;-0.26;71.33
75217;HTU21D;63800;51.972;5.682;2023-03-01T00:36:13;-0.22;70.68
75217;HTU21D;63800;51.972;5.682;2023-03-01T00:38:42;-0.26;70.68
75217;HTU21D;63800;51.972;5.682;2023-03-01T00:41:11;-0.35;71.90
75217;HTU21D;63800;51.972;5.682;2023-03-01T00:43:37;-0.29;71.90
75217;HTU21D;63800;51.972;5.682;2023-03-01T00:46:04;-0.40;70.52
75217;HTU21D;63800;51.972;5.682;2023-03-01T00:48:31;-0.45;70.24
75217;HTU21D;63800;51.972;5.682;2023-03-01T00:50:56;-0.36;71.60
75217;HTU21D;63800;51.972;5.682;2023-03-01T00:53:22;-0.28;70.59
75217;HTU21D;63800;51.972;5.682;2023-03-01T00:55:47;-0.24;69.61
75217;HTU21D;63800;51.972;5.682;2023-03-01T00:58:13;-0.30;71.12
75217;HTU21D;63800;51.972;5.682;2023-03-01T01:00:38;-0.30;70.38
75217;HTU21D;63800;51.972;5.682;2023-03-01T01:03:03;-0.36;71.33
75217;HTU21D;63800;51.972;5.682;2023-03-01T01:05:29;-0.35;71.52
75217;HTU21D;63800;51.972;5.682;2023-03-01T01:07:54;-0.37;71.49
75217;HTU21D;63800;51.972;5.682;2023-03-01T01:10:20;-0.42;71.52
75217;HTU21D;63800;51.972;5.682;2023-03-01T01:12:46;-0.49;72.06
75217;HTU21D;63800;51.972;5.682;2023-03-01T01:15:12;-0.40;71.87
75217;HTU21D;63800;51.972;5.682;2023-03-01T01:17:40;-0.37;71.92
75217;HTU21D;63800;51.972;5.682;2023-03-01T01:20:06;-0.41;71.19
75217;HTU21D;63800;51.972;5.682;2023-03-01T01:22:31;-0.50;72.18
75217;HTU21D;63800;51.972;5.682;2023-03-01T01:24:57;-0.51;71.62
75217;HTU21D;63800;51.972;5.682;2023-03-01T01:27:22;-0.34;70.95
75217;HTU21D;63800;51.972;5.682;2023-03-01T01:29:48;-0.51;71.16
75217;HTU21D;63800;51.972;5.682;2023-03-01T01:32:13;-0.61;71.95
75217;HTU21D;63800;51.972;5.682;2023-03-01T01:34:41;-0.57;71.44
75217;HTU21D;63800;51.972;5.682;2023-03-01T01:37:06;-0.58;71.53
75217;HTU21D;63800;51.972;5.682;2023-03-01T01:39:36;-0.52;72.26
75217;HTU21D;63800;51.972;5.682;2023-03-01T01:42:02;-0.60;73.30
75217;HTU21D;63800;51.972;5.682;2023-03-01T01:44:28;-0.52;72.46
75217;HTU21D;63800;51.972;5.682;2023-03-01T01:46:58;-0.42;72.20
75217;HTU21D;63800;51.972;5.682;2023-03-01T01:49:47;-0.53;73.06
75217;HTU21D;63800;51.972;5.682;2023-03-01T01:52:25;-0.73;73.03
75217;HTU21D;63800;51.972;5.682;2023-03-01T01:57:42;-0.58;72.33
75217;HTU21D;63800;51.972;5.682;2023-03-01T02:00:20;-0.60;73.10
75217;HTU21D;63800;51.972;5.682;2023-03-01T02:02:48;-0.69;72.77
75217;HTU21D;63800;51.972;5.682;2023-03-01T02:05:24;-0.77;72.51
75217;HTU21D;63800;51.972;5.682;2023-03-01T02:07:51;-0.71;72.54
75217;HTU21D;63800;51.972;5.682;2023-03-01T02:10:17;-0.71;73.73
75217;HTU21D;63800;51.972;5.682;2023-03-01T02:12:43;-0.67;72.99
75217;HTU21D;63800;51.972;5.682;2023-03-01T02:15:09;-0.72;73.48
75217;HTU21D;63800;51.972;5.682;2023-03-01T02:17:35;-0.68;72.06
75217;HTU21D;63800;51.972;5.682;2023-03-01T02:23:11;-0.79;72.25
75217;HTU21D;63800;51.972;5.682;2023-03-01T02:25:44;-0.67;71.89
75217;HTU21D;63800;51.972;5.682;2023-03-01T02:30:47;-0.71;72.22
75217;HTU21D;63800;51.972;5.682;2023-03-01T02:33:34;-0.68;70.77
75217;HTU21D;63800;51.972;5.682;2023-03-01T02:36:04;-0.68;72.04
75217;HTU21D;63800;51.972;5.682;2023-03-01T02:38:32;-0.57;71.10
75217;HTU21D;63800;51.972;5.682;2023-03-01T02:40:58;-0.67;70.90
75217;HTU21D;63800;51.972;5.682;2023-03-01T02:43:28;-0.51;71.32
75217;HTU21D;63800;51.972;5.682;2023-03-01T02:45:58;-0.50;70.55
75217;HTU21D;63800;51.972;5.682;2023-03-01T02:48:24;-0.49;71.02
75217;HTU21D;63800;51.972;5.682;2023-03-01T02:51:07;-0.44;70.48
75217;HTU21D;63800;51.972;5.682;2023-03-01T02:53:55;-0.44;70.07
75217;HTU21D;63800;51.972;5.682;2023-03-01T02:56:21;-0.40;70.52
75217;HTU21D;63800;51.972;5.682;2023-03-01T02:58:47;-0.46;70.17
75217;HTU21D;63800;51.972;5.682;2023-03-01T03:01:18;-0.36;69.60
75217;HTU21D;63800;51.972;5.682;2023-03-01T03:03:43;-0.37;69.65
75217;HTU21D;63800;51.972;5.682;2023-03-01T03:06:09;-0.21;69.58
75217;HTU21D;63800;51.972;5.682;2023-03-01T03:08:35;0.09;67.31
75217;HTU21D;63800;51.972;5.682;2023-03-01T03:11:00;0.05;67.30
75217;HTU21D;63800;51.972;5.682;2023-03-01T03:13:26;0.09;68.38
75217;HTU21D;63800;51.972;5.682;2023-03-01T03:15:54;-0.20;68.78
75217;HTU21D;63800;51.972;5.682;2023-03-01T03:18:20;-0.19;69.20
75217;HTU21D;63800;51.972;5.682;2023-03-01T03:20:46;-0.25;68.73
75217;HTU21D;63800;51.972;5.682;2023-03-01T03:23:11;-0.25;69.57
75217;HTU21D;63800;51.972;5.682;2023-03-01T03:25:37;-0.39;70.12
75217;HTU21D;63800;51.972;5.682;2023-03-01T03:28:04;-0.44;69.59
75217;HTU21D;63800;51.972;5.682;2023-03-01T03:30:36;-0.41;70.13
75217;HTU21D;63800;51.972;5.682;2023-03-01T03:33:01;-0.47;69.22
75217;HTU21D;63800;51.972;5.682;2023-03-01T03:35:30;-0.52;70.19
75217;HTU21D;63800;51.972;5.682;2023-03-01T03:37:57;-0.42;69.91
75217;HTU21D;63800;51.972;5.682;2023-03-01T03:43:01;-0.47;70.26
75217;HTU21D;63800;51.972;5.682;2023-03-01T03:45:26;-0.45;69.52
75217;HTU21D;63800;51.972;5.682;2023-03-01T03:47:52;-0.57;70.91
75217;HTU21D;63800;51.972;5.682;2023-03-01T03:50:18;-0.43;69.34
75217;HTU21D;63800;51.972;5.682;2023-03-01T03:52:43;-0.46;69.33
75217;HTU21D;63800;51.972;5.682;2023-03-01T03:55:11;-0.52;69.78
75217;HTU21D;63800;51.972;5.682;2023-03-01T03:57:38;-0.45;70.00
75217;HTU21D;63800;51.972;5.682;2023-03-01T04:00:06;-0.47;70.29
75217;HTU21D;63800;51.972;5.682;2023-03-01T04:02:41;-0.51;70.61
75217;HTU21D;63800;51.972;5.682;2023-03-01T04:05:08;-0.58;71.00
75217;HTU21D;63800;51.972;5.682;2023-03-01T04:07:35;-0.59;69.78
75217;HTU21D;63800;51.972;5.682;2023-03-01T04:10:02;-0.59;70.81
75217;HTU21D;63800;51.972;5.682;2023-03-01T04:12:28;-0.58;70.49
75217;HTU21D;63800;51.972;5.682;2023-03-01T04:14:54;-0.69;71.48
75217;HTU21D;63800;51.972;5.682;2023-03-01T04:17:19;-0.68;70.40
75217;HTU21D;63800;51.972;5.682;2023-03-01T04:19:44;-0.60;70.81
75217;HTU21D;63800;51.972;5.682;2023-03-01T04:22:14;-0.69;71.65
75217;HTU21D;63800;51.972;5.682;2023-03-01T04:24:42;-0.77;71.13
75217;HTU21D;63800;51.972;5.682;2023-03-01T04:27:08;-0.76;71.80
75217;HTU21D;63800;51.972;5.682;2023-03-01T04:29:34;-0.74;70.93
75217;HTU21D;63800;51.972;5.682;2023-03-01T04:31:59;-0.73;72.06
75217;HTU21D;63800;51.972;5.682;2023-03-01T04:34:25;-0.41;70.52
75217;HTU21D;63800;51.972;5.682;2023-03-01T04:36:52;-0.58;70.93
75217;HTU21D;63800;51.972;5.682;2023-03-01T04:39:18;-0.61;71.58
75217;HTU21D;63800;51.972;5.682;2023-03-01T04:41:43;-0.54;70.64
75217;HTU21D;63800;51.972;5.682;2023-03-01T04:44:09;-0.37;69.16
75217;HTU21D;63800;51.972;5.682;2023-03-01T04:46:35;-0.34;69.91
75217;HTU21D;63800;51.972;5.682;2023-03-01T04:49:02;-0.45;70.43
75217;HTU21D;63800;51.972;5.682;2023-03-01T04:51:27;-0.42;70.74
75217;HTU21D;63800;51.972;5.682;2023-03-01T04:53:53;-0.54;71.42
75217;HTU21D;63800;51.972;5.682;2023-03-01T04:56:18;-0.59;71.40
75217;HTU21D;63800;51.972;5.682;2023-03-01T04:58:44;-0.69;72.02
75217;HTU21D;63800;51.972;5.682;2023-03-01T05:01:20;-0.62;71.80
75217;HTU21D;63800;51.972;5.682;2023-03-01T05:03:50;-0.75;71.69
75217;HTU21D;63800;51.972;5.682;2023-03-01T05:06:17;-0.80;72.54
75217;HTU21D;63800;51.972;5.682;2023-03-01T05:08:43;-0.77;71.65
75217;HTU21D;63800;51.972;5.682;2023-03-01T05:11:10;-0.72;71.38
75217;HTU21D;63800;51.972;5.682;2023-03-01T05:13:36;-0.86;72.17
75217;HTU21D;63800;51.972;5.682;2023-03-01T05:16:04;-0.85;72.24
75217;HTU21D;63800;51.972;5.682;2023-03-01T05:18:32;-0.75;72.02
75217;HTU21D;63800;51.972;5.682;2023-03-01T05:21:06;-0.79;71.95
75217;HTU21D;63800;51.972;5.682;2023-03-01T05:23:33;-0.82;71.19
75217;HTU21D;63800;51.972;5.682;2023-03-01T05:26:00;-0.90;72.35
75217;HTU21D;63800;51.972;5.682;2023-03-01T05:28:26;-0.64;70.94
75217;HTU21D;63800;51.972;5.682;2023-03-01T05:30:53;-0.85;71.51
75217;HTU21D;63800;51.972;5.682;2023-03-01T05:33:19;-0.82;72.16
75217;HTU21D;63800;51.972;5.682;2023-03-01T05:35:47;-0.80;72.53
75217;HTU21D;63800;51.972;5.682;2023-03-01T05:38:14;-0.84;72.11
75217;HTU21D;63800;51.972;5.682;2023-03-01T05:40:44;-0.95;72.72
75217;HTU21D;63800;51.972;5.682;2023-03-01T05:43:11;-0.90;72.30
75217;HTU21D;63800;51.972;5.682;2023-03-01T05:45:38;-0.95;72.70
75217;HTU21D;63800;51.972;5.682;2023-03-01T05:48:05;-0.99;72.75
75217;HTU21D;63800;51.972;5.682;2023-03-01T05:50:34;-0.98;73.82
75217;HTU21D;63800;51.972;5.682;2023-03-01T05:53:03;-0.94;72.87
75217;HTU21D;63800;51.972;5.682;2023-03-01T05:55:32;-1.05;72.88
75217;HTU21D;63800;51.972;5.682;2023-03-01T05:57:59;-1.11;73.87
75217;HTU21D;63800;51.972;5.682;2023-03-01T06:00:25;-1.04;73.25
75217;HTU21D;63800;51.972;5.682;2023-03-01T06:02:50;-0.94;72.89
75217;HTU21D;63800;51.972;5.682;2023-03-01T06:05:17;-1.00;73.50
75217;HTU21D;63800;51.972;5.682;2023-03-01T06:07:43;-1.02;73.03
75217;HTU21D;63800;51.972;5.682;2023-03-01T06:10:10;-0.97;73.15
75217;HTU21D;63800;51.972;5.682;2023-03-01T06:12:37;-1.01;74.12
75217;HTU21D;63800;51.972;5.682;2023-03-01T06:15:04;-1.01;73.93
75217;HTU21D;63800;51.972;5.682;2023-03-01T06:17:31;-1.04;73.86
75217;HTU21D;63800;51.972;5.682;2023-03-01T06:19:57;-1.03;73.11
75217;HTU21D;63800;51.972;5.682;2023-03-01T06:22:22;-1.06;73.84
75217;HTU21D;63800;51.972;5.682;2023-03-01T06:24:48;-0.98;73.54
75217;HTU21D;63800;51.972;5.682;2023-03-01T06:27:13;-1.06;73.71
75217;HTU21D;63800;51.972;5.682;2023-03-01T06:29:38;-1.03;73.83
75217;HTU21D;63800;51.972;5.682;2023-03-01T06:32:04;-0.98;73.92
75217;HTU21D;63800;51.972;5.682;2023-03-01T06:34:30;-1.00;73.55
75217;HTU21D;63800;51.972;5.682;2023-03-01T06:36:56;-0.99;73.65
75217;HTU21D;63800;51.972;5.682;2023-03-01T06:39:22;-0.95;72.94
75217;HTU21D;63800;51.972;5.682;2023-03-01T06:41:47;-0.93;72.71
75217;HTU21D;63800;51.972;5.682;2023-03-01T06:44:12;-0.97;73.46
75217;HTU21D;63800;51.972;5.682;2023-03-01T06:46:39;-1.00;73.77
75217;HTU21D;63800;51.972;5.682;2023-03-01T06:49:05;-1.00;73.94
75217;HTU21D;63800;51.972;5.682;2023-03-01T06:51:35;-0.98;73.55
75217;HTU21D;63800;51.972;5.682;2023-03-01T06:54:00;-0.96;73.63
75217;HTU21D;63800;51.972;5.682;2023-03-01T06:56:26;-0.91;73.51
75217;HTU21D;63800;51.972;5.682;2023-03-01T06:58:51;-0.87;73.77
75217;HTU21D;63800;51.972;5.682;2023-03-01T07:01:17;-0.87;73.72
75217;HTU21D;63800;51.972;5.682;2023-03-01T07:03:42;-0.85;73.14
75217;HTU21D;63800;51.972;5.682;2023-03-01T07:06:09;-0.80;73.67
75217;HTU21D;63800;51.972;5.682;2023-03-01T07:08:35;-0.66;73.20
75217;HTU21D;63800;51.972;5.682;2023-03-01T07:11:00;-0.67;73.48
75217;HTU21D;63800;51.972;5.682;2023-03-01T07:13:28;-0.61;72.76
75217;HTU21D;63800;51.972;5.682;2023-03-01T07:15:53;-0.60;73.16
75217;HTU21D;63800;51.972;5.682;2023-03-01T07:18:18;-0.58;73.45
75217;HTU21D;63800;51.972;5.682;2023-03-01T07:20:44;-0.38;72.71
75217;HTU21D;63800;51.972;5.682;2023-03-01T07:23:09;-0.43;73.67
75217;HTU21D;63800;51.972;5.682;2023-03-01T07:25:35;-0.21;72.97
75217;HTU21D;63800;51.972;5.682;2023-03-01T07:28:00;-0.19;71.90
75217;HTU21D;63800;51.972;5.682;2023-03-01T07:30:26;-0.15;71.39
75217;HTU21D;63800;51.972;5.682;2023-03-01T07:32:54;-0.14;71.89
75217;HTU21D;63800;51.972;5.682;2023-03-01T07:35:19;0.15;70.14
75217;HTU21D;63800;51.972;5.682;2023-03-01T07:37:45;0.10;71.31
75217;HTU21D;63800;51.972;5.682;2023-03-01T07:40:11;0.27;71.29
75217;HTU21D;63800;51.972;5.682;2023-03-01T07:42:37;0.22;70.28
75217;HTU21D;63800;51.972;5.682;2023-03-01T07:45:03;0.32;70.64
75217;HTU21D;63800;51.972;5.682;2023-03-01T07:47:29;0.29;70.05
75217;HTU21D;63800;51.972;5.682;2023-03-01T07:49:54;0.30;71.85
75217;HTU21D;63800;51.972;5.682;2023-03-01T07:52:20;0.45;70.46
75217;HTU21D;63800;51.972;5.682;2023-03-01T07:54:45;0.39;70.10
75217;HTU21D;63800;51.972;5.682;2023-03-01T07:57:11;0.59;69.29
75217;HTU21D;63800;51.972;5.682;2023-03-01T07:59:36;0.75;68.55
75217;HTU21D;63800;51.972;5.682;2023-03-01T08:02:02;0.67;69.13
75217;HTU21D;63800;51.972;5.682;2023-03-01T08:04:27;0.88;68.54
75217;HTU21D;63800;51.972;5.682;2023-03-01T08:06:54;0.82;68.13
75217;HTU21D;63800;51.972;5.682;2023-03-01T08:09:19;0.86;68.82
75217;HTU21D;63800;51.972;5.682;2023-03-01T08:11:45;0.84;68.58
75217;HTU21D;63800;51.972;5.682;2023-03-01T08:14:10;0.97;68.67
75217;HTU21D;63800;51.972;5.682;2023-03-01T08:16:36;0.97;68.23
75217;HTU21D;63800;51.972;5.682;2023-03-01T08:19:10;1.07;68.29
75217;HTU21D;63800;51.972;5.682;2023-03-01T08:21:36;1.14;69.00
75217;HTU21D;63800;51.972;5.682;2023-03-01T08:24:03;1.26;67.85
75217;HTU21D;63800;51.972;5.682;2023-03-01T08:26:29;1.25;67.42
75217;HTU21D;63800;51.972;5.682;2023-03-01T08:28:55;1.36;66.81
75217;HTU21D;63800;51.972;5.682;2023-03-01T08:31:43;1.34;67.65
75217;HTU21D;63800;51.972;5.682;2023-03-01T08:34:12;1.37;65.90
75217;HTU21D;63800;51.972;5.682;2023-03-01T08:36:39;1.46;66.42
75217;HTU21D;63800;51.972;5.682;2023-03-01T08:39:06;1.65;66.30
75217;HTU21D;63800;51.972;5.682;2023-03-01T08:41:32;1.62;67.24
75217;HTU21D;63800;51.972;5.682;2023-03-01T08:43:57;1.65;67.72
75217;HTU21D;63800;51.972;5.682;2023-03-01T08:46:30;1.72;66.44
75217;HTU21D;63800;51.972;5.682;2023-03-01T08:48:56;1.71;65.67
75217;HTU21D;63800;51.972;5.682;2023-03-01T08:51:22;1.90;65.58
75217;HTU21D;63800;51.972;5.682;2023-03-01T08:53:49;1.96;65.43
75217;HTU21D;63800;51.972;5.682;2023-03-01T08:56:16;2.02;64.91
75217;HTU21D;63800;51.972;5.682;2023-03-01T08:58:48;2.19;64.39
75217;HTU21D;63800;51.972;5.682;2023-03-01T09:01:17;2.21;64.56
75217;HTU21D;63800;51.972;5.682;2023-03-01T09:03:43;2.22;65.11
75217;HTU21D;63800;51.972;5.682;2023-03-01T09:06:10;2.36;64.48
75217;HTU21D;63800;51.972;5.682;2023-03-01T09:08:37;2.36;63.83
75217;HTU21D;63800;51.972;5.682;2023-03-01T09:11:05;2.41;64.18
75217;HTU21D;63800;51.972;5.682;2023-03-01T09:13:31;2.46;63.40
75217;HTU21D;63800;51.972;5.682;2023-03-01T09:15:58;2.60;63.07
75217;HTU21D;63800;51.972;5.682;2023-03-01T09:18:23;2.67;63.28
75217;HTU21D;63800;51.972;5.682;2023-03-01T09:20:49;2.79;63.00
75217;HTU21D;63800;51.972;5.682;2023-03-01T09:23:14;2.85;63.35
75217;HTU21D;63800;51.972;5.682;2023-03-01T09:25:40;2.96;63.27
75217;HTU21D;63800;51.972;5.682;2023-03-01T09:28:05;3.06;61.86
75217;HTU21D;63800;51.972;5.682;2023-03-01T09:30:30;3.23;62.41
75217;HTU21D;63800;51.972;5.682;2023-03-01T09:32:56;3.34;62.23
75217;HTU21D;63800;51.972;5.682;2023-03-01T09:35:22;3.36;60.53
75217;HTU21D;63800;51.972;5.682;2023-03-01T09:37:49;3.42;60.22
75217;HTU21D;63800;51.972;5.682;2023-03-01T09:40:21;3.61;61.79
75217;HTU21D;63800;51.972;5.682;2023-03-01T09:42:59;3.70;60.25
75217;HTU21D;63800;51.972;5.682;2023-03-01T09:45:39;3.87;60.61
75217;HTU21D;63800;51.972;5.682;2023-03-01T09:48:14;3.86;58.44
75217;HTU21D;63800;51.972;5.682;2023-03-01T09:50:43;3.95;57.90
75217;HTU21D;63800;51.972;5.682;2023-03-01T09:53:35;4.09;57.22
75217;HTU21D;63800;51.972;5.682;2023-03-01T10:02:04;4.49;55.11
75217;HTU21D;63800;51.972;5.682;2023-03-01T10:04:47;4.67;55.10
75217;HTU21D;63800;51.972;5.682;2023-03-01T10:07:23;4.67;53.37
75217;HTU21D;63800;51.972;5.682;2023-03-01T10:09:52;4.95;52.36
75217;HTU21D;63800;51.972;5.682;2023-03-01T10:12:21;5.10;52.02
75217;HTU21D;63800;51.972;5.682;2023-03-01T10:17:35;5.55;52.63
75217;HTU21D;63800;51.972;5.682;2023-03-01T10:20:24;5.89;50.92
75217;HTU21D;63800;51.972;5.682;2023-03-01T10:22:51;5.94;50.47
75217;HTU21D;63800;51.972;5.682;2023-03-01T10:27:53;6.08;50.24
75217;HTU21D;63800;51.972;5.682;2023-03-01T10:30:32;5.94;48.53
75217;HTU21D;63800;51.972;5.682;2023-03-01T10:33:00;6.13;49.63
75217;HTU21D;63800;51.972;5.682;2023-03-01T10:35:28;6.53;48.51
75217;HTU21D;63800;51.972;5.682;2023-03-01T10:38:09;6.84;47.79
75217;HTU21D;63800;51.972;5.682;2023-03-01T10:40:56;6.96;46.54
75217;HTU21D;63800;51.972;5.682;2023-03-01T10:43:24;7.05;46.74
75217;HTU21D;63800;51.972;5.682;2023-03-01T10:45:51;7.29;46.80
75217;HTU21D;63800;51.972;5.682;2023-03-01T10:48:22;7.22;45.25
75217;HTU21D;63800;51.972;5.682;2023-03-01T10:55:57;7.76;46.31
75217;HTU21D;63800;51.972;5.682;2023-03-01T10:58:23;7.72;44.09
75217;HTU21D;63800;51.972;5.682;2023-03-01T11:00:54;7.97;44.31
75217;HTU21D;63800;51.972;5.682;2023-03-01T11:03:23;8.17;43.38
75217;HTU21D;63800;51.972;5.682;2023-03-01T11:08:43;7.98;41.37
75217;HTU21D;63800;51.972;5.682;2023-03-01T11:13:34;9.08;41.32
75217;HTU21D;63800;51.972;5.682;2023-03-01T11:16:10;9.38;39.60
75217;HTU21D;63800;51.972;5.682;2023-03-01T11:18:37;9.80;38.92
75217;HTU21D;63800;51.972;5.682;2023-03-01T11:21:03;9.69;40.30
75217;HTU21D;63800;51.972;5.682;2023-03-01T11:23:30;10.26;38.32
75217;HTU21D;63800;51.972;5.682;2023-03-01T11:26:04;9.68;38.33
75217;HTU21D;63800;51.972;5.682;2023-03-01T11:28:30;10.15;38.48
75217;HTU21D;63800;51.972;5.682;2023-03-01T11:31:03;10.89;35.43
75217;HTU21D;63800;51.972;5.682;2023-03-01T11:38:55;11.87;34.20
75217;HTU21D;63800;51.972;5.682;2023-03-01T11:41:25;12.99;31.35
75217;HTU21D;63800;51.972;5.682;2023-03-01T11:43:56;13.29;31.50
75217;HTU21D;63800;51.972;5.682;2023-03-01T11:46:34;13.33;32.05
75217;HTU21D;63800;51.972;5.682;2023-03-01T11:52:22;14.43;30.07
75217;HTU21D;63800;51.972;5.682;2023-03-01T12:08:33;16.25;28.03
75217;HTU21D;63800;51.972;5.682;2023-03-01T12:16:23;16.19;27.75
75217;HTU21D;63800;51.972;5.682;2023-03-01T12:22:02;16.50;27.18
75217;HTU21D;63800;51.972;5.682;2023-03-01T12:24:51;19.35;23.24
75217;HTU21D;63800;51.972;5.682;2023-03-01T12:30:27;17.20;26.34
75217;HTU21D;63800;51.972;5.682;2023-03-01T12:35:54;17.10;24.81
75217;HTU21D;63800;51.972;5.682;2023-03-01T12:41:29;18.93;22.71
75217;HTU21D;63800;51.972;5.682;2023-03-01T12:49:49;18.00;25.48
75217;HTU21D;63800;51.972;5.682;2023-03-01T12:52:27;17.94;23.97
75217;HTU21D;63800;51.972;5.682;2023-03-01T12:54:57;17.05;24.94
75217;HTU21D;63800;51.972;5.682;2023-03-01T12:57:31;17.70;24.74
75217;HTU21D;63800;51.972;5.682;2023-03-01T13:00:22;18.70;22.42
75217;HTU21D;63800;51.972;5.682;2023-03-01T13:03:25;17.50;24.14
75217;HTU21D;63800;51.972;5.682;2023-03-01T13:06:19;17.54;24.53
75217;HTU21D;63800;51.972;5.682;2023-03-01T13:09:05;18.22;24.08
75217;HTU21D;63800;51.972;5.682;2023-03-01T13:11:33;18.18;24.28
75217;HTU21D;63800;51.972;5.682;2023-03-01T13:14:43;18.50;23.41
75217;HTU21D;63800;51.972;5.682;2023-03-01T13:17:30;18.49;23.30
75217;HTU21D;63800;51.972;5.682;2023-03-01T13:19:57;17.95;24.06
75217;HTU21D;63800;51.972;5.682;2023-03-01T13:22:29;18.91;22.13
75217;HTU21D;63800;51.972;5.682;2023-03-01T13:27:41;17.72;25.10
75217;HTU21D;63800;51.972;5.682;2023-03-01T13:35:54;20.53;20.54
75217;HTU21D;63800;51.972;5.682;2023-03-01T13:38:47;17.97;26.42
75217;HTU21D;63800;51.972;5.682;2023-03-01T13:41:17;18.03;24.65
75217;HTU21D;63800;51.972;5.682;2023-03-01T13:46:44;18.93;23.49
75217;HTU21D;63800;51.972;5.682;2023-03-01T13:49:14;19.06;22.08
75217;HTU21D;63800;51.972;5.682;2023-03-01T13:51:41;17.15;24.22
75217;HTU21D;63800;51.972;5.682;2023-03-01T13:54:11;17.13;25.38
75217;HTU21D;63800;51.972;5.682;2023-03-01T13:56:37;17.00;25.50
75217;HTU21D;63800;51.972;5.682;2023-03-01T13:59:14;19.45;20.69
75217;HTU21D;63800;51.972;5.682;2023-03-01T14:01:40;17.81;22.92
75217;HTU21D;63800;51.972;5.682;2023-03-01T14:04:22;17.54;23.89
75217;HTU21D;63800;51.972;5.682;2023-03-01T14:06:47;17.52;23.58
75217;HTU21D;63800;51.972;5.682;2023-03-01T14:09:19;17.87;23.94
75217;HTU21D;63800;51.972;5.682;2023-03-01T14:14:34;18.03;23.01
75217;HTU21D;63800;51.972;5.682;2023-03-01T14:19:48;16.59;25.15
75217;HTU21D;63800;51.972;5.682;2023-03-01T14:22:24;16.54;25.47
75217;HTU21D;63800;51.972;5.682;2023-03-01T14:24:51;16.73;24.86
75217;HTU21D;63800;51.972;5.682;2023-03-01T14:27:18;17.13;24.94
75217;HTU21D;63800;51.972;5.682;2023-03-01T14:29:54;16.13;25.32
75217;HTU21D;63800;51.972;5.682;2023-03-01T14:32:22;15.60;25.92
75217;HTU21D;63800;51.972;5.682;2023-03-01T14:34:50;15.78;25.64
75217;HTU21D;63800;51.972;5.682;2023-03-01T14:39:50;11.92;33.42
75217;HTU21D;63800;51.972;5.682;2023-03-01T14:42:16;12.38;32.57
75217;HTU21D;63800;51.972;5.682;2023-03-01T14:44:46;11.47;33.88
75217;HTU21D;63800;51.972;5.682;2023-03-01T14:47:15;10.95;34.47
75217;HTU21D;63800;51.972;5.682;2023-03-01T14:49:42;10.16;37.30
75217;HTU21D;63800;51.972;5.682;2023-03-01T14:52:21;10.11;36.43
75217;HTU21D;63800;51.972;5.682;2023-03-01T14:54:51;9.66;38.13
75217;HTU21D;63800;51.972;5.682;2023-03-01T14:57:21;10.12;36.69
75217;HTU21D;63800;51.972;5.682;2023-03-01T14:59:48;9.85;36.14
75217;HTU21D;63800;51.972;5.682;2023-03-01T15:02:18;9.49;36.78
75217;HTU21D;63800;51.972;5.682;2023-03-01T15:04:50;9.71;36.80
75217;HTU21D;63800;51.972;5.682;2023-03-01T15:07:17;9.55;37.33
75217;HTU21D;63800;51.972;5.682;2023-03-01T15:09:43;9.21;38.17
75217;HTU21D;63800;51.972;5.682;2023-03-01T15:14:53;9.03;38.56
75217;HTU21D;63800;51.972;5.682;2023-03-01T15:17:33;9.11;38.90
75217;HTU21D;63800;51.972;5.682;2023-03-01T15:20:00;9.04;38.88
75217;HTU21D;63800;51.972;5.682;2023-03-01T15:22:27;9.12;38.17
75217;HTU21D;63800;51.972;5.682;2023-03-01T15:24:54;8.98;38.49
75217;HTU21D;63800;51.972;5.682;2023-03-01T15:27:22;8.82;38.60
75217;HTU21D;63800;51.972;5.682;2023-03-01T15:30:02;8.74;38.00
75217;HTU21D;63800;51.972;5.682;2023-03-01T15:32:34;8.64;37.79
75217;HTU21D;63800;51.972;5.682;2023-03-01T15:35:01;8.77;38.58
75217;HTU21D;63800;51.972;5.682;2023-03-01T15:37:53;8.62;38.28
75217;HTU21D;63800;51.972;5.682;2023-03-01T15:40:21;8.58;38.39
75217;HTU21D;63800;51.972;5.682;2023-03-01T15:42:50;8.53;39.20
75217;HTU21D;63800;51.972;5.682;2023-03-01T15:47:49;8.52;38.46
75217;HTU21D;63800;51.972;5.682;2023-03-01T15:50:19;8.51;38.08
75217;HTU21D;63800;51.972;5.682;2023-03-01T15:52:45;8.37;38.23
75217;HTU21D;63800;51.972;5.682;2023-03-01T15:55:23;8.13;38.75
75217;HTU21D;63800;51.972;5.682;2023-03-01T15:57:49;8.31;39.55
75217;HTU21D;63800;51.972;5.682;2023-03-01T16:00:16;8.18;38.30
75217;HTU21D;63800;51.972;5.682;2023-03-01T16:02:43;8.14;38.72
75217;HTU21D;63800;51.972;5.682;2023-03-01T16:07:42;8.08;38.50
75217;HTU21D;63800;51.972;5.682;2023-03-01T16:10:08;8.19;37.90
75217;HTU21D;63800;51.972;5.682;2023-03-01T16:12:34;8.13;38.41
75217;HTU21D;63800;51.972;5.682;2023-03-01T16:14:59;7.93;39.87
75217;HTU21D;63800;51.972;5.682;2023-03-01T16:17:24;7.92;39.30
75217;HTU21D;63800;51.972;5.682;2023-03-01T16:19:51;7.84;39.20
75217;HTU21D;63800;51.972;5.682;2023-03-01T16:22:16;7.92;40.09
75217;HTU21D;63800;51.972;5.682;2023-03-01T16:24:41;7.99;39.23
75217;HTU21D;63800;51.972;5.682;2023-03-01T16:27:07;7.87;40.17
75217;HTU21D;63800;51.972;5.682;2023-03-01T16:29:33;7.71;39.61
75217;HTU21D;63800;51.972;5.682;2023-03-01T16:32:01;7.68;40.65
75217;HTU21D;63800;51.972;5.682;2023-03-01T16:34:27;7.43;40.13
75217;HTU21D;63800;51.972;5.682;2023-03-01T16:36:52;7.56;38.97
75217;HTU21D;63800;51.972;5.682;2023-03-01T16:39:18;7.41;40.10
75217;HTU21D;63800;51.972;5.682;2023-03-01T16:41:43;7.25;41.60
75217;HTU21D;63800;51.972;5.682;2023-03-01T16:44:09;7.08;42.76
75217;HTU21D;63800;51.972;5.682;2023-03-01T16:46:34;7.04;42.16
75217;HTU21D;63800;51.972;5.682;2023-03-01T16:49:00;7.01;41.65
75217;HTU21D;63800;51.972;5.682;2023-03-01T16:51:25;7.20;41.35
75217;HTU21D;63800;51.972;5.682;2023-03-01T16:53:51;7.09;42.07
75217;HTU21D;63800;51.972;5.682;2023-03-01T16:56:17;7.17;41.62
75217;HTU21D;63800;51.972;5.682;2023-03-01T16:58:43;6.97;41.87
75217;HTU21D;63800;51.972;5.682;2023-03-01T17:01:15;7.00;41.45
75217;HTU21D;63800;51.972;5.682;2023-03-01T17:03:41;6.91;42.62
75217;HTU21D;63800;51.972;5.682;2023-03-01T17:06:12;6.81;42.71
75217;HTU21D;63800;51.972;5.682;2023-03-01T17:08:38;6.55;44.50
75217;HTU21D;63800;51.972;5.682;2023-03-01T17:11:09;6.53;44.56
75217;HTU21D;63800;51.972;5.682;2023-03-01T17:13:36;6.30;46.14
75217;HTU21D;63800;51.972;5.682;2023-03-01T17:16:06;6.38;45.80
75217;HTU21D;63800;51.972;5.682;2023-03-01T17:18:33;6.20;46.57